createdAt,value
2023-01-29T00:06:32.000Z,1000.41
2023-01-29T00:21:08.000Z,1000.37
2023-01-29T00:35:44.000Z,1000.19
2023-01-29T00:50:19.000Z,1000.05
2023-01-29T01:04:56.000Z,999.91
2023-01-29T01:19:32.000Z,999.60
2023-01-29T01:34:07.000Z,999.58
2023-01-29T01:48:45.000Z,999.59
2023-01-29T02:03:19.000Z,999.63
2023-01-29T02:17:52.000Z,999.87
2023-01-29T02:32:30.000Z,999.73
2023-01-29T02:47:08.000Z,999.61
2023-01-29T03:01:45.000Z,999.60
2023-01-29T03:16:21.000Z,999.59
2023-01-29T03:30:49.000Z,999.61
2023-01-29T03:45:22.000Z,999.80
2023-01-29T03:59:58.000Z,999.80
2023-01-29T04:14:34.000Z,1000.05
2023-01-29T04:29:12.000Z,999.69
2023-01-29T04:43:46.000Z,999.42
2023-01-29T04:58:23.000Z,999.30
2023-01-29T05:12:57.000Z,999.63
2023-01-29T05:27:32.000Z,999.62
2023-01-29T05:42:10.000Z,999.57
2023-01-29T05:56:49.000Z,999.57
2023-01-29T06:11:27.000Z,999.27
2023-01-29T06:25:59.000Z,999.04
2023-01-29T06:40:35.000Z,999.46
2023-01-29T06:55:11.000Z,999.45
2023-01-29T07:09:50.000Z,999.53
2023-01-29T07:24:27.000Z,999.64
2023-01-29T07:39:04.000Z,999.74
2023-01-29T07:53:42.000Z,999.75
2023-01-29T08:08:20.000Z,999.94
2023-01-29T08:22:51.000Z,999.95
2023-01-29T08:37:30.000Z,999.66
2023-01-29T08:52:08.000Z,999.87
2023-01-29T09:06:46.000Z,999.87
2023-01-29T09:21:27.000Z,1000.04
2023-01-29T09:35:57.000Z,1000.26
2023-01-29T09:50:33.000Z,1000.30
2023-01-29T10:05:12.000Z,999.78
2023-01-29T10:19:50.000Z,999.60
2023-01-29T10:34:29.000Z,999.40
2023-01-29T10:49:11.000Z,999.21
2023-01-29T11:03:52.000Z,998.90
2023-01-29T11:18:31.000Z,998.70
2023-01-29T11:33:09.000Z,998.45
2023-01-29T11:47:47.000Z,998.46
2023-01-29T12:02:25.000Z,998.24
2023-01-29T12:16:57.000Z,997.92
2023-01-29T12:31:35.000Z,997.55
2023-01-29T12:46:23.000Z,997.34
2023-01-29T12:51:18.000Z,997.33
2023-01-29T12:56:14.000Z,997.18
2023-01-29T13:10:49.000Z,997.23
2023-01-29T13:25:27.000Z,997.07
2023-01-29T13:30:23.000Z,997.02
2023-01-29T13:35:19.000Z,996.99
2023-01-29T13:40:14.000Z,996.87
2023-01-29T13:45:09.000Z,996.89
2023-01-29T13:50:03.000Z,996.79
2023-01-29T13:54:58.000Z,996.76
2023-01-29T13:59:53.000Z,996.71
2023-01-29T14:04:47.000Z,996.57
2023-01-29T14:09:39.000Z,996.44
2023-01-29T14:14:34.000Z,996.40
2023-01-29T14:19:28.000Z,996.38
2023-01-29T14:24:22.000Z,996.35
2023-01-29T14:29:17.000Z,996.30
2023-01-29T14:34:11.000Z,996.21
2023-01-29T14:39:05.000Z,996.23
2023-01-29T14:43:59.000Z,996.14
2023-01-29T14:48:53.000Z,996.14
2023-01-29T14:53:44.000Z,995.97
2023-01-29T14:58:38.000Z,995.97
2023-01-29T15:13:07.000Z,995.88
2023-01-29T15:27:42.000Z,995.74
2023-01-29T15:42:13.000Z,995.83
2023-01-29T15:56:41.000Z,995.97
2023-01-29T16:11:14.000Z,996.06
2023-01-29T16:25:49.000Z,996.06
2023-01-29T16:40:24.000Z,996.22
2023-01-29T16:55:00.000Z,996.19
2023-01-29T17:09:36.000Z,996.31
2023-01-29T17:24:13.000Z,996.21
2023-01-29T17:38:51.000Z,996.04
2023-01-29T17:53:28.000Z,996.08
2023-01-29T18:08:05.000Z,996.00
2023-01-29T18:22:42.000Z,995.89
2023-01-29T18:37:19.000Z,995.76
2023-01-29T18:51:56.000Z,995.54
2023-01-29T19:06:34.000Z,995.56
2023-01-29T19:21:06.000Z,995.44
2023-01-29T19:35:41.000Z,995.19
2023-01-29T19:50:19.000Z,994.96
2023-01-29T20:04:49.000Z,994.77
2023-01-29T20:19:25.000Z,994.78
2023-01-29T20:34:03.000Z,994.63
2023-01-29T20:48:41.000Z,994.62
2023-01-29T21:03:19.000Z,994.23
2023-01-29T21:17:57.000Z,993.84
2023-01-29T21:32:35.000Z,993.49
2023-01-29T21:47:05.000Z,993.52
2023-01-29T22:01:35.000Z,993.40
2023-01-29T22:16:02.000Z,993.14
2023-01-29T22:30:40.000Z,993.25
2023-01-29T22:45:15.000Z,993.05
2023-01-29T22:59:51.000Z,993.00
2023-01-29T23:14:29.000Z,993.02
2023-01-29T23:29:06.000Z,993.06
2023-01-29T23:43:38.000Z,992.70
2023-01-29T23:58:14.000Z,992.50
